Terminal Aerodrome Forecast
Issued by NWS

Home | Current Version | Previous Version | Text Only | Print | Product List | Glossary On
Versions: 1 2 3 4 5 6 7 8 9 10 11 12 13 14 15 16 17
000
FTUS41 KBTV 220300 AAB
TAFMSS
TAF AMD
KMSS 220311Z 2203/2224 29012KT P6SM OVC006
      TEMPO 2203/2207 OVC009
     FM220700 28012KT P6SM OVC006
     FM221100 27014G20KT P6SM SCT006 OVC025
     FM221400 27014G24KT P6SM OVC025=

USA.gov is the U.S. government's official web portal to all federal, state and local government web resources and services.